Terminal Aerodrome Forecast
Issued by NWS Austin/San Antonio, TX

Home | Current Version | Previous Version | Text Only | Print | Product List | Glossary On
Versions: 1 2 3 4 5 6 7 8 9 10 11 12 13 14 15 16 17 18 19 20
866
FTUS44 KEWX 261144
TAFDRT
TAF
KDRT 261144Z 2612/2712 10006KT P6SM FEW250
     FM261900 08008KT P6SM VCTS BKN040CB
     FM270100 11007KT P6SM BKN250=

USA.gov is the U.S. government's official web portal to all federal, state and local government web resources and services.